createdAt,value
2018-06-02T00:01:30.296Z,71.40
2018-06-02T00:03:57.774Z,71.70
2018-06-02T00:06:25.243Z,71.70
2018-06-02T00:08:52.682Z,71.60
2018-06-02T00:11:20.205Z,72.00
2018-06-02T00:13:47.616Z,72.00
2018-06-02T00:16:15.081Z,71.70
2018-06-02T00:18:42.530Z,72.00
2018-06-02T00:21:10.098Z,71.70
2018-06-02T00:23:37.550Z,71.70
2018-06-02T00:26:05.032Z,72.10
2018-06-02T00:28:32.486Z,71.90
2018-06-02T00:30:59.957Z,72.20
2018-06-02T00:33:27.411Z,72.10
2018-06-02T00:35:54.848Z,72.10
2018-06-02T00:38:22.337Z,72.20
2018-06-02T00:40:49.800Z,72.30
2018-06-02T00:43:17.237Z,72.30
2018-06-02T00:45:44.724Z,72.10
2018-06-02T00:48:12.278Z,72.30
2018-06-02T00:50:39.741Z,72.50
2018-06-02T00:53:07.197Z,72.40
2018-06-02T00:55:34.646Z,72.50
2018-06-02T00:58:02.104Z,72.30
2018-06-02T01:00:29.600Z,72.40
2018-06-02T01:02:57.054Z,72.70
2018-06-02T01:05:24.533Z,72.90
2018-06-02T01:07:52.005Z,73.30
2018-06-02T01:10:19.453Z,72.90
2018-06-02T01:12:47.009Z,73.60
2018-06-02T01:15:14.474Z,73.60
2018-06-02T01:17:41.933Z,73.00
2018-06-02T01:20:09.398Z,73.10
2018-06-02T01:22:36.869Z,72.90
2018-06-02T01:25:04.338Z,73.10
2018-06-02T01:27:31.777Z,73.00
2018-06-02T01:29:59.246Z,73.30
2018-06-02T01:32:26.685Z,73.30
2018-06-02T01:34:54.169Z,73.40
2018-06-02T01:37:21.622Z,73.60
2018-06-02T01:39:49.197Z,73.60
2018-06-02T01:42:16.638Z,73.40
2018-06-02T01:44:44.118Z,73.50
2018-06-02T01:47:11.685Z,73.70
2018-06-02T01:49:39.253Z,73.70
2018-06-02T01:52:06.820Z,73.70
2018-06-02T01:54:34.287Z,73.90
2018-06-02T01:57:01.732Z,73.80
2018-06-02T01:59:29.219Z,74.00
2018-06-02T02:01:56.666Z,74.00
2018-06-02T02:04:24.232Z,73.80
2018-06-02T02:06:51.682Z,73.80
2018-06-02T02:09:19.132Z,73.80
2018-06-02T02:11:46.604Z,74.00
2018-06-02T02:14:14.045Z,74.30
2018-06-02T02:16:41.523Z,74.20
2018-06-02T02:19:08.987Z,74.10
2018-06-02T02:21:36.477Z,73.80
2018-06-02T02:24:03.933Z,74.10
2018-06-02T02:26:31.378Z,74.10
2018-06-02T02:28:58.836Z,73.90
2018-06-02T02:31:26.317Z,74.10
2018-06-02T02:33:53.777Z,73.80
2018-06-02T02:36:21.349Z,73.90
2018-06-02T02:38:48.809Z,74.00
2018-06-02T02:41:16.282Z,74.00
2018-06-02T02:43:43.718Z,74.10
2018-06-02T02:46:11.176Z,74.10
2018-06-02T02:48:38.637Z,74.70
2018-06-02T02:51:06.074Z,74.10
2018-06-02T02:53:34.294Z,74.20
2018-06-02T02:56:01.757Z,74.10
2018-06-02T02:58:29.223Z,74.10
2018-06-02T03:00:56.705Z,74.50
2018-06-02T03:03:24.169Z,74.50
2018-06-02T03:05:51.622Z,74.70
2018-06-02T03:08:19.185Z,74.70
2018-06-02T03:10:46.632Z,75.00
2018-06-02T03:13:14.098Z,75.10
2018-06-02T03:15:41.544Z,75.00
2018-06-02T03:18:09.028Z,75.40
2018-06-02T03:20:36.481Z,75.20
2018-06-02T03:23:04.057Z,75.20
2018-06-02T03:25:31.493Z,75.10
2018-06-02T03:27:58.983Z,75.10
2018-06-02T03:30:26.455Z,75.20
2018-06-02T03:32:53.903Z,75.30
2018-06-02T03:35:21.470Z,75.40
2018-06-02T03:37:48.942Z,75.40
2018-06-02T03:40:16.509Z,75.50
2018-06-02T03:42:44.513Z,75.50
2018-06-02T03:45:12.753Z,76.70
2018-06-02T03:47:40.196Z,76.00
2018-06-02T03:50:07.638Z,76.00
2018-06-02T03:52:35.110Z,75.90
2018-06-02T03:55:02.570Z,75.70
2018-06-02T03:57:30.061Z,75.50
2018-06-02T03:59:57.517Z,75.50
2018-06-02T04:02:24.977Z,75.60
2018-06-02T04:04:52.423Z,76.30
2018-06-02T04:07:19.900Z,75.80
2018-06-02T04:09:47.345Z,76.20
2018-06-02T04:12:14.796Z,76.00
2018-06-02T04:14:43.117Z,75.30
2018-06-02T04:17:10.591Z,75.30
2018-06-02T04:19:38.151Z,75.40
2018-06-02T04:22:05.609Z,75.50
2018-06-02T04:24:33.180Z,75.40
2018-06-02T04:27:00.630Z,75.20
2018-06-02T04:29:28.087Z,75.40
2018-06-02T04:31:55.525Z,75.20
2018-06-02T04:34:23.003Z,75.30
2018-06-02T04:36:50.437Z,76.10
2018-06-02T04:39:17.894Z,75.50
2018-06-02T04:41:45.636Z,75.80
2018-06-02T04:44:13.093Z,75.80
2018-06-02T04:46:40.553Z,75.70
2018-06-02T04:49:08.103Z,76.30
2018-06-02T04:51:35.573Z,76.30
2018-06-02T04:54:03.021Z,75.50
2018-06-02T04:56:30.476Z,76.30
2018-06-02T04:58:57.957Z,76.40
2018-06-02T05:01:25.426Z,75.60
2018-06-02T05:03:53.168Z,76.50
2018-06-02T05:06:20.629Z,75.90
2018-06-02T05:08:48.126Z,77.00
2018-06-02T05:11:15.563Z,76.40
2018-06-02T05:13:43.028Z,76.00
2018-06-02T05:16:10.488Z,76.00
2018-06-02T05:18:37.921Z,76.20
2018-06-02T05:21:06.181Z,75.40
2018-06-02T05:23:33.613Z,75.40
2018-06-02T05:26:01.378Z,75.00
2018-06-02T05:28:28.848Z,75.60
2018-06-02T05:30:56.297Z,75.60
2018-06-02T05:33:23.764Z,75.50
2018-06-02T05:35:51.221Z,75.40
2018-06-02T05:38:19.229Z,75.80
2018-06-02T05:40:48.782Z,74.80
2018-06-02T05:43:17.714Z,75.50
2018-06-02T05:45:45.365Z,75.50
2018-06-02T05:48:12.834Z,75.80
2018-06-02T05:50:40.271Z,74.70
2018-06-02T05:53:07.763Z,74.50
2018-06-02T05:55:35.325Z,73.80
2018-06-02T05:58:03.578Z,74.10
2018-06-02T06:00:31.796Z,73.80
2018-06-02T06:02:59.351Z,73.70
2018-06-02T06:05:26.815Z,73.20
2018-06-02T06:07:54.275Z,73.40
2018-06-02T06:10:21.719Z,73.10
2018-06-02T06:12:49.218Z,73.20
2018-06-02T06:15:16.665Z,73.10
2018-06-02T06:17:44.130Z,73.10
2018-06-02T06:20:11.599Z,72.80
2018-06-02T06:22:39.078Z,73.10
2018-06-02T06:25:06.609Z,72.80
2018-06-02T06:27:34.041Z,72.70
2018-06-02T06:30:01.514Z,73.30
2018-06-02T06:32:29.006Z,73.20
2018-06-02T06:34:56.455Z,73.50
2018-06-02T06:37:23.913Z,72.50
2018-06-02T06:39:51.469Z,72.70
2018-06-02T06:42:18.953Z,72.20
2018-06-02T06:44:46.463Z,72.60
2018-06-02T06:47:13.857Z,72.00
2018-06-02T06:49:41.319Z,71.70
2018-06-02T06:52:08.806Z,71.70
2018-06-02T06:54:36.274Z,71.80
2018-06-02T06:57:03.773Z,71.90
2018-06-02T06:59:32.005Z,72.00
2018-06-02T07:01:59.465Z,71.90
2018-06-02T07:04:28.846Z,71.40
2018-06-02T07:06:57.058Z,70.80
2018-06-02T07:09:24.533Z,70.70
2018-06-02T07:11:52.060Z,70.50
2018-06-02T07:14:19.439Z,70.50
2018-06-02T07:16:47.009Z,72.00
2018-06-02T07:19:14.451Z,70.30
2018-06-02T07:21:41.950Z,70.30
2018-06-02T07:24:09.352Z,70.90
2018-06-02T07:26:37.562Z,70.50
2018-06-02T07:29:05.017Z,70.50
2018-06-02T07:31:32.498Z,69.80
2018-06-02T07:33:59.978Z,69.70
2018-06-02T07:36:27.609Z,70.40
2018-06-02T07:38:55.906Z,69.70
2018-06-02T07:41:23.473Z,69.30
2018-06-02T07:43:50.933Z,68.90
2018-06-02T07:46:18.414Z,69.20
2018-06-02T07:48:46.050Z,68.40
2018-06-02T07:51:13.533Z,67.90
2018-06-02T07:53:40.993Z,68.50
2018-06-02T07:56:08.864Z,67.20
2018-06-02T07:58:36.302Z,67.30
2018-06-02T08:01:03.781Z,67.10
2018-06-02T08:03:31.271Z,67.50
2018-06-02T08:05:58.713Z,67.60
2018-06-02T08:08:26.157Z,67.50
2018-06-02T08:10:53.665Z,67.40
2018-06-02T08:13:21.117Z,67.20
2018-06-02T08:15:48.552Z,67.00
2018-06-02T08:18:16.014Z,67.60
2018-06-02T08:20:43.487Z,66.80
2018-06-02T08:23:10.946Z,66.50
2018-06-02T08:25:38.413Z,66.20
2018-06-02T08:28:05.877Z,66.10
2018-06-02T08:30:33.337Z,66.20
2018-06-02T08:33:00.901Z,65.00
2018-06-02T08:35:28.352Z,64.70
2018-06-02T08:37:55.829Z,65.50
2018-06-02T08:40:23.286Z,66.10
2018-06-02T08:42:50.761Z,66.60
2018-06-02T08:45:18.211Z,66.80
2018-06-02T08:47:45.985Z,66.60
2018-06-02T08:50:13.445Z,66.30
2018-06-02T08:52:41.529Z,66.30
2018-06-02T08:55:09.089Z,66.30
2018-06-02T08:57:36.715Z,65.80
2018-06-02T09:00:04.280Z,65.30
2018-06-02T09:02:32.600Z,64.70
2018-06-02T09:05:00.063Z,64.60
2018-06-02T09:07:27.509Z,64.70
2018-06-02T09:09:54.966Z,64.30
2018-06-02T09:12:22.405Z,63.80
2018-06-02T09:14:50.651Z,61.80
2018-06-02T09:17:18.097Z,61.80
2018-06-02T09:19:45.567Z,61.10
2018-06-02T09:22:13.126Z,61.80
2018-06-02T09:24:40.561Z,61.60
2018-06-02T09:27:08.046Z,61.10
2018-06-02T09:29:35.512Z,60.90
2018-06-02T09:32:02.978Z,60.60
2018-06-02T09:34:30.440Z,59.40
2018-06-02T09:36:57.882Z,60.30
2018-06-02T09:39:25.354Z,60.80
2018-06-02T09:41:52.812Z,61.00
2018-06-02T09:44:20.285Z,60.60
2018-06-02T09:46:47.733Z,61.70
2018-06-02T09:49:15.189Z,61.90
2018-06-02T09:51:42.637Z,61.20
2018-06-02T09:54:10.107Z,61.50
2018-06-02T09:56:37.607Z,61.60
2018-06-02T09:59:05.069Z,61.40
2018-06-02T10:01:32.534Z,59.30
2018-06-02T10:04:00.004Z,60.60
2018-06-02T10:06:27.457Z,59.20
2018-06-02T10:08:54.911Z,59.90
2018-06-02T10:11:22.361Z,60.10
2018-06-02T10:13:49.839Z,59.60
2018-06-02T10:16:17.328Z,60.30
2018-06-02T10:18:45.525Z,60.80
2018-06-02T10:21:13.741Z,60.90
2018-06-02T10:23:41.211Z,60.90
2018-06-02T10:26:08.665Z,61.00
2018-06-02T10:28:36.149Z,61.30
2018-06-02T10:31:03.701Z,61.60
2018-06-02T10:33:31.760Z,61.70
2018-06-02T10:35:59.577Z,61.90
2018-06-02T10:38:27.237Z,61.90
2018-06-02T10:40:54.970Z,62.20
2018-06-02T10:43:22.599Z,61.50
2018-06-02T10:45:50.582Z,62.40
2018-06-02T10:48:19.290Z,62.70
2018-06-02T10:50:47.822Z,63.70
2018-06-02T10:53:15.733Z,63.70
2018-06-02T10:55:44.389Z,63.90
2018-06-02T10:58:12.234Z,63.20
2018-06-02T11:00:39.840Z,63.20
2018-06-02T11:03:07.505Z,63.40
2018-06-02T11:05:35.267Z,63.70
2018-06-02T11:08:03.825Z,64.80
2018-06-02T11:10:31.621Z,64.80
2018-06-02T11:12:59.456Z,62.80
2018-06-02T11:15:27.319Z,62.10
2018-06-02T11:17:57.196Z,62.40
2018-06-02T11:20:25.338Z,61.10
2018-06-02T11:22:53.251Z,61.00
2018-06-02T11:25:21.165Z,60.70
2018-06-02T11:27:48.876Z,61.00
2018-06-02T11:30:16.845Z,60.00
2018-06-02T11:32:44.713Z,58.60
2018-06-02T11:35:12.479Z,58.50
2018-06-02T11:37:40.248Z,57.80
2018-06-02T11:40:08.698Z,57.70
2018-06-02T11:42:36.488Z,57.70
2018-06-02T11:45:04.147Z,58.40
2018-06-02T11:47:32.034Z,58.70
2018-06-02T11:50:00.739Z,57.20
2018-06-02T11:52:28.552Z,56.50
2018-06-02T11:54:57.197Z,56.40
2018-06-02T11:57:24.965Z,56.40
2018-06-02T11:59:52.859Z,56.00
2018-06-02T12:02:20.819Z,55.70
2018-06-02T12:04:48.793Z,55.60
2018-06-02T12:07:16.669Z,56.00
2018-06-02T12:09:44.551Z,55.30
2018-06-02T12:12:12.423Z,55.30
2018-06-02T12:14:40.161Z,54.60
2018-06-02T12:17:08.015Z,55.30
2018-06-02T12:19:35.722Z,55.60
2018-06-02T12:22:03.572Z,55.00
2018-06-02T12:24:31.340Z,53.60
2018-06-02T12:26:58.976Z,54.50
2018-06-02T12:29:26.897Z,53.20
2018-06-02T12:31:54.660Z,52.00
2018-06-02T12:34:22.423Z,53.90
2018-06-02T12:36:50.233Z,54.80
2018-06-02T12:39:18.079Z,53.60
2018-06-02T12:41:45.932Z,52.40
2018-06-02T12:44:13.800Z,53.40
2018-06-02T12:46:41.755Z,53.50
2018-06-02T12:49:10.901Z,54.20
2018-06-02T12:51:38.666Z,52.70
2018-06-02T12:54:06.093Z,53.40
2018-06-02T12:56:33.560Z,52.80
2018-06-02T12:59:01.142Z,53.00
2018-06-02T13:01:28.597Z,51.70
2018-06-02T13:03:56.066Z,50.60
2018-06-02T13:06:23.553Z,50.70
2018-06-02T13:08:51.029Z,49.80
2018-06-02T13:11:19.357Z,50.70
2018-06-02T13:13:46.812Z,50.70
2018-06-02T13:16:14.281Z,50.00
2018-06-02T13:18:41.722Z,50.50
2018-06-02T13:21:09.214Z,50.20
2018-06-02T13:23:36.673Z,48.70
2018-06-02T13:26:04.241Z,51.00
2018-06-02T13:28:31.710Z,49.30
2018-06-02T13:30:59.268Z,50.20
2018-06-02T13:33:26.725Z,52.40
2018-06-02T13:35:54.189Z,53.00
2018-06-02T13:38:21.668Z,53.00
2018-06-02T13:40:49.122Z,53.00
2018-06-02T13:43:16.594Z,52.40
2018-06-02T13:45:44.150Z,52.90
2018-06-02T13:48:11.709Z,53.10
2018-06-02T13:50:39.155Z,53.40
2018-06-02T13:53:06.612Z,53.70
2018-06-02T13:55:34.051Z,54.00
2018-06-02T13:58:02.274Z,53.30
2018-06-02T14:00:29.730Z,53.30
2018-06-02T14:02:57.201Z,53.40
2018-06-02T14:05:24.658Z,53.40
2018-06-02T14:07:52.133Z,53.60
2018-06-02T14:10:19.597Z,54.00
2018-06-02T14:12:47.040Z,53.90
2018-06-02T14:15:14.488Z,54.20
2018-06-02T14:17:41.953Z,54.10
2018-06-02T14:20:09.437Z,54.10
2018-06-02T14:22:36.894Z,54.40
2018-06-02T14:25:04.357Z,54.30
2018-06-02T14:27:31.799Z,54.30
2018-06-02T14:29:59.241Z,54.70
2018-06-02T14:32:27.573Z,54.90
2018-06-02T14:34:55.029Z,54.80
2018-06-02T14:37:22.488Z,54.40
2018-06-02T14:39:50.060Z,54.70
2018-06-02T14:42:17.526Z,54.40
2018-06-02T14:44:44.970Z,53.80
2018-06-02T14:47:12.425Z,54.50
2018-06-02T14:49:39.865Z,54.40
2018-06-02T14:52:08.085Z,54.40
2018-06-02T14:54:35.550Z,54.30
2018-06-02T14:57:03.109Z,54.40
2018-06-02T14:59:30.577Z,54.60
2018-06-02T15:01:58.132Z,54.50
2018-06-02T15:04:25.607Z,54.20
2018-06-02T15:06:53.045Z,54.80
2018-06-02T15:09:20.476Z,54.30
2018-06-02T15:11:48.713Z,54.30
2018-06-02T15:14:16.169Z,54.30
2018-06-02T15:16:43.629Z,54.40
2018-06-02T15:19:11.197Z,54.40
2018-06-02T15:21:38.765Z,53.90
2018-06-02T15:24:06.202Z,55.00
2018-06-02T15:26:33.658Z,54.80
2018-06-02T15:29:01.150Z,54.70
2018-06-02T15:31:28.709Z,54.80
2018-06-02T15:33:56.191Z,55.10
2018-06-02T15:36:23.738Z,54.80
2018-06-02T15:38:51.201Z,54.60
2018-06-02T15:41:18.645Z,54.70
2018-06-02T15:43:46.104Z,54.70
2018-06-02T15:46:13.545Z,54.90
2018-06-02T15:48:41.887Z,55.40
2018-06-02T15:51:09.362Z,55.40
2018-06-02T15:53:36.897Z,55.50
2018-06-02T15:56:04.465Z,55.00
2018-06-02T15:58:31.924Z,55.00
2018-06-02T16:00:59.363Z,54.30
2018-06-02T16:03:26.908Z,54.80
2018-06-02T16:05:54.318Z,55.60
2018-06-02T16:08:21.777Z,55.30
2018-06-02T16:10:49.243Z,55.50
2018-06-02T16:13:16.807Z,55.70
2018-06-02T16:15:44.237Z,55.70
2018-06-02T16:18:11.693Z,55.80
2018-06-02T16:20:39.153Z,55.70
2018-06-02T16:23:06.600Z,55.30
2018-06-02T16:25:34.830Z,55.10
2018-06-02T16:28:02.261Z,55.10
2018-06-02T16:30:29.732Z,55.50
2018-06-02T16:32:57.175Z,55.60
2018-06-02T16:35:25.397Z,54.90
2018-06-02T16:37:52.861Z,54.90
2018-06-02T16:40:20.325Z,54.90
2018-06-02T16:42:47.781Z,56.00
2018-06-02T16:45:15.245Z,55.40
2018-06-02T16:47:42.681Z,55.70
2018-06-02T16:50:10.175Z,55.70
2018-06-02T16:52:37.609Z,56.10
2018-06-02T16:55:05.076Z,55.70
2018-06-02T16:57:33.021Z,55.80
2018-06-02T17:00:01.252Z,55.80
2018-06-02T17:02:28.718Z,55.80
2018-06-02T17:04:56.177Z,55.70
2018-06-02T17:07:23.605Z,55.90
2018-06-02T17:09:51.075Z,55.70
2018-06-02T17:12:18.539Z,55.60
2018-06-02T17:14:46.024Z,55.30
2018-06-02T17:17:13.589Z,56.00
2018-06-02T17:19:41.060Z,55.70
2018-06-02T17:22:08.622Z,55.90
2018-06-02T17:24:36.050Z,55.90
2018-06-02T17:27:03.512Z,56.10
2018-06-02T17:29:31.004Z,56.20
2018-06-02T17:31:58.463Z,56.40
2018-06-02T17:34:25.919Z,56.30
2018-06-02T17:36:53.399Z,56.40
2018-06-02T17:39:20.854Z,56.50
2018-06-02T17:41:48.321Z,56.40
2018-06-02T17:44:15.783Z,56.60
2018-06-02T17:46:43.241Z,56.60
2018-06-02T17:49:10.722Z,56.70
2018-06-02T17:51:38.212Z,57.00
2018-06-02T17:54:05.645Z,57.00
2018-06-02T17:56:33.191Z,56.70
2018-06-02T17:59:00.630Z,56.90
2018-06-02T18:01:28.094Z,57.40
2018-06-02T18:03:55.573Z,57.60
2018-06-02T18:06:23.043Z,57.60
2018-06-02T18:08:50.511Z,57.70
2018-06-02T18:11:17.942Z,57.70
2018-06-02T18:13:45.397Z,57.80
2018-06-02T18:16:12.854Z,57.80
2018-06-02T18:18:40.362Z,57.80
2018-06-02T18:21:07.817Z,58.00
2018-06-02T18:23:35.378Z,58.40
2018-06-02T18:26:02.944Z,58.30
2018-06-02T18:28:30.385Z,58.60
2018-06-02T18:30:57.852Z,59.00
2018-06-02T18:33:25.305Z,59.10
2018-06-02T18:35:52.800Z,59.70
2018-06-02T18:38:20.263Z,60.40
2018-06-02T18:40:47.724Z,60.40
2018-06-02T18:43:15.285Z,60.30
2018-06-02T18:45:42.724Z,60.90
2018-06-02T18:48:10.176Z,61.20
2018-06-02T18:50:37.669Z,61.40
2018-06-02T18:53:05.143Z,61.40
2018-06-02T18:55:32.701Z,62.00
2018-06-02T18:58:00.158Z,62.10
2018-06-02T19:00:27.634Z,63.00
2018-06-02T19:02:55.184Z,62.30
2018-06-02T19:05:22.620Z,62.00
2018-06-02T19:07:50.063Z,62.20
2018-06-02T19:10:18.393Z,62.50
2018-06-02T19:12:45.857Z,62.50
2018-06-02T19:15:13.330Z,63.10
2018-06-02T19:17:40.884Z,62.70
2018-06-02T19:20:08.324Z,62.70
2018-06-02T19:22:35.857Z,62.90
2018-06-02T19:25:03.250Z,62.60
2018-06-02T19:27:30.692Z,62.80
2018-06-02T19:29:58.145Z,62.80
2018-06-02T19:32:26.482Z,64.00
2018-06-02T19:34:53.926Z,64.00
2018-06-02T19:37:21.411Z,64.00
2018-06-02T19:39:48.857Z,64.20
2018-06-02T19:42:16.311Z,64.80
2018-06-02T19:44:43.831Z,64.50
2018-06-02T19:47:12.077Z,65.40
2018-06-02T19:49:39.525Z,65.40
2018-06-02T19:52:06.992Z,65.50
2018-06-02T19:54:34.441Z,65.80
2018-06-02T19:57:01.917Z,66.10
2018-06-02T19:59:29.368Z,66.40
2018-06-02T20:01:56.828Z,66.60
2018-06-02T20:04:24.314Z,66.10
2018-06-02T20:06:51.768Z,65.50
2018-06-02T20:09:19.235Z,66.00
2018-06-02T20:11:46.728Z,66.20
2018-06-02T20:14:14.151Z,65.80
2018-06-02T20:16:41.701Z,65.50
2018-06-02T20:19:09.196Z,65.20
2018-06-02T20:21:36.661Z,65.10
2018-06-02T20:24:04.107Z,65.40
2018-06-02T20:26:31.542Z,66.10
2018-06-02T20:28:59.042Z,67.10
2018-06-02T20:31:26.478Z,67.50
2018-06-02T20:33:54.477Z,68.00
2018-06-02T20:36:21.922Z,67.60
2018-06-02T20:38:49.388Z,67.80
2018-06-02T20:41:16.837Z,67.40
2018-06-02T20:43:44.329Z,67.40
2018-06-02T20:46:11.882Z,67.40
2018-06-02T20:48:39.350Z,67.50
2018-06-02T20:51:06.823Z,67.60
2018-06-02T20:53:34.262Z,68.20
2018-06-02T20:56:01.718Z,68.20
2018-06-02T20:58:29.169Z,68.10
2018-06-02T21:00:56.634Z,68.40
2018-06-02T21:03:24.089Z,68.10
2018-06-02T21:05:51.534Z,68.20
2018-06-02T21:08:53.625Z,68.30
2018-06-02T21:11:21.877Z,68.40
2018-06-02T21:13:50.142Z,68.40
2018-06-02T21:16:18.429Z,68.70
2018-06-02T21:18:47.090Z,68.70
2018-06-02T21:21:15.465Z,68.70
2018-06-02T21:23:43.714Z,69.00
2018-06-02T21:26:11.973Z,69.00
2018-06-02T21:28:40.221Z,69.10
2018-06-02T21:31:08.493Z,69.30
2018-06-02T21:33:36.748Z,69.20
2018-06-02T21:36:05.028Z,69.20
2018-06-02T21:38:33.297Z,69.10
2018-06-02T21:41:01.578Z,69.10
2018-06-02T21:43:29.825Z,68.80
2018-06-02T21:45:58.079Z,68.70
2018-06-02T21:48:26.340Z,68.30
2018-06-02T21:50:54.590Z,68.10
2018-06-02T21:53:22.854Z,68.70
2018-06-02T21:55:51.128Z,69.40
2018-06-02T21:58:19.504Z,69.80
2018-06-02T22:00:47.749Z,69.90
2018-06-02T22:03:16.125Z,70.10
2018-06-02T22:05:44.391Z,70.30
2018-06-02T22:08:12.740Z,70.50
2018-06-02T22:10:41.017Z,70.50
2018-06-02T22:13:09.659Z,70.40
2018-06-02T22:15:37.995Z,70.60
2018-06-02T22:18:06.362Z,70.50
2018-06-02T22:20:34.676Z,70.50
2018-06-02T22:23:02.946Z,70.10
2018-06-02T22:25:31.227Z,70.70
2018-06-02T22:27:59.501Z,71.00
2018-06-02T22:30:27.818Z,70.90
2018-06-02T22:32:56.100Z,71.00
2018-06-02T22:35:24.385Z,70.90
2018-06-02T22:37:52.651Z,70.80
2018-06-02T22:40:20.915Z,70.90
2018-06-02T22:42:49.239Z,71.10
2018-06-02T22:45:17.512Z,71.10
2018-06-02T22:47:45.766Z,71.50
2018-06-02T22:50:14.035Z,71.70
2018-06-02T22:52:42.344Z,71.60
2018-06-02T22:55:10.614Z,71.50
2018-06-02T22:57:39.110Z,71.50
2018-06-02T23:00:07.425Z,71.80
2018-06-02T23:02:35.676Z,71.80
2018-06-02T23:05:04.033Z,71.90
2018-06-02T23:07:32.389Z,71.90
2018-06-02T23:10:00.646Z,71.90
2018-06-02T23:12:28.946Z,71.70
2018-06-02T23:14:57.177Z,71.80
2018-06-02T23:17:25.416Z,72.20
2018-06-02T23:19:53.674Z,72.10
2018-06-02T23:22:55.393Z,72.20
2018-06-02T23:25:23.665Z,72.10
2018-06-02T23:27:51.962Z,72.20
2018-06-02T23:30:20.222Z,72.40
2018-06-02T23:32:48.481Z,72.20
2018-06-02T23:35:16.752Z,72.30
2018-06-02T23:37:45.025Z,72.50
2018-06-02T23:40:13.264Z,72.70
2018-06-02T23:42:41.520Z,72.70
2018-06-02T23:45:09.814Z,72.90
2018-06-02T23:47:38.067Z,73.10
2018-06-02T23:50:06.349Z,73.10
2018-06-02T23:52:34.605Z,73.00
2018-06-02T23:55:03.025Z,73.00
2018-06-02T23:57:31.469Z,73.20
2018-06-02T23:59:59.713Z,73.20
